sensor_id;sensor_type;location;lat;lon;timestamp;P1;durP1;ratioP1;P2;durP2;ratioP2
49450;SDS011;35336;48.400;10.886;2024-03-23T00:52:27;4.05;;;2.85;;
49450;SDS011;35336;48.400;10.886;2024-03-23T00:52:43;3.38;;;2.70;;
49450;SDS011;35336;48.400;10.886;2024-03-23T00:52:58;2.97;;;2.67;;
49450;SDS011;35336;48.400;10.886;2024-03-23T00:53:46;3.33;;;2.60;;
49450;SDS011;35336;48.400;10.886;2024-03-23T00:54:04;3.25;;;2.67;;
49450;SDS011;35336;48.400;10.886;2024-03-23T00:54:19;3.57;;;2.63;;
49450;SDS011;35336;48.400;10.886;2024-03-23T00:54:37;4.10;;;2.67;;
49450;SDS011;35336;48.400;10.886;2024-03-23T00:54:52;4.72;;;2.88;;
49450;SDS011;35336;48.400;10.886;2024-03-23T00:55:07;5.07;;;2.95;;
49450;SDS011;35336;48.400;10.886;2024-03-23T00:55:23;6.27;;;2.90;;
49450;SDS011;35336;48.400;10.886;2024-03-23T00:55:38;6.70;;;2.73;;
49450;SDS011;35336;48.400;10.886;2024-03-23T00:55:53;6.70;;;2.87;;
49450;SDS011;35336;48.400;10.886;2024-03-23T00:56:08;5.97;;;2.80;;
49450;SDS011;35336;48.400;10.886;2024-03-23T00:56:24;4.43;;;2.60;;
49450;SDS011;35336;48.400;10.886;2024-03-23T00:56:39;5.10;;;2.70;;
49450;SDS011;35336;48.400;10.886;2024-03-23T00:56:54;5.20;;;2.73;;
49450;SDS011;35336;48.400;10.886;2024-03-23T00:57:10;3.60;;;2.67;;
49450;SDS011;35336;48.400;10.886;2024-03-23T00:57:25;3.95;;;2.70;;
49450;SDS011;35336;48.400;10.886;2024-03-23T00:57:40;4.40;;;2.90;;
49450;SDS011;35336;48.400;10.886;2024-03-23T00:57:58;4.43;;;2.85;;
49450;SDS011;35336;48.400;10.886;2024-03-23T00:58:13;5.97;;;2.70;;
49450;SDS011;35336;48.400;10.886;2024-03-23T00:58:28;5.60;;;2.77;;
49450;SDS011;35336;48.400;10.886;2024-03-23T00:58:44;5.00;;;2.93;;
49450;SDS011;35336;48.400;10.886;2024-03-23T00:58:59;5.13;;;3.07;;
49450;SDS011;35336;48.400;10.886;2024-03-23T00:59:14;4.15;;;2.90;;
49450;SDS011;35336;48.400;10.886;2024-03-23T00:59:29;6.03;;;2.70;;
49450;SDS011;35336;48.400;10.886;2024-03-23T00:59:45;7.30;;;2.80;;
49450;SDS011;35336;48.400;10.886;2024-03-23T01:00:00;4.90;;;2.73;;
49450;SDS011;35336;48.400;10.886;2024-03-23T01:00:15;4.20;;;2.80;;
49450;SDS011;35336;48.400;10.886;2024-03-23T01:00:31;5.13;;;3.17;;
49450;SDS011;35336;48.400;10.886;2024-03-23T01:00:46;5.03;;;3.07;;
49450;SDS011;35336;48.400;10.886;2024-03-23T01:01:01;5.65;;;2.80;;
49450;SDS011;35336;48.400;10.886;2024-03-23T01:01:17;5.90;;;2.93;;
49450;SDS011;35336;48.400;10.886;2024-03-23T01:01:32;4.40;;;3.10;;
49450;SDS011;35336;48.400;10.886;2024-03-23T01:01:49;3.67;;;3.07;;
49450;SDS011;35336;48.400;10.886;2024-03-23T01:02:05;4.15;;;2.80;;
49450;SDS011;35336;48.400;10.886;2024-03-23T01:02:20;5.33;;;2.87;;
49450;SDS011;35336;48.400;10.886;2024-03-23T01:02:35;6.43;;;3.00;;
49450;SDS011;35336;48.400;10.886;2024-03-23T01:02:51;6.60;;;3.05;;
49450;SDS011;35336;48.400;10.886;2024-03-23T01:03:07;5.73;;;3.13;;
49450;SDS011;35336;48.400;10.886;2024-03-23T01:03:22;5.55;;;2.92;;
49450;SDS011;35336;48.400;10.886;2024-03-23T01:03:37;4.50;;;2.80;;
49450;SDS011;35336;48.400;10.886;2024-03-23T01:03:52;4.27;;;2.90;;
49450;SDS011;35336;48.400;10.886;2024-03-23T01:04:10;4.43;;;2.88;;
49450;SDS011;35336;48.400;10.886;2024-03-23T01:04:25;3.97;;;2.85;;
49450;SDS011;35336;48.400;10.886;2024-03-23T01:04:40;4.00;;;2.90;;
49450;SDS011;35336;48.400;10.886;2024-03-23T01:04:56;4.07;;;2.83;;
49450;SDS011;35336;48.400;10.886;2024-03-23T01:05:13;3.50;;;2.80;;
49450;SDS011;35336;48.400;10.886;2024-03-23T01:05:29;3.87;;;3.00;;
49450;SDS011;35336;48.400;10.886;2024-03-23T01:05:44;5.43;;;3.00;;
49450;SDS011;35336;48.400;10.886;2024-03-23T01:06:02;5.87;;;3.07;;
49450;SDS011;35336;48.400;10.886;2024-03-23T01:06:18;4.97;;;3.17;;
49450;SDS011;35336;48.400;10.886;2024-03-23T01:06:33;4.50;;;3.37;;
49450;SDS011;35336;48.400;10.886;2024-03-23T01:06:48;4.32;;;3.40;;
49450;SDS011;35336;48.400;10.886;2024-03-23T01:07:04;4.00;;;3.10;;
49450;SDS011;35336;48.400;10.886;2024-03-23T01:07:19;4.07;;;2.90;;
49450;SDS011;35336;48.400;10.886;2024-03-23T01:07:34;4.70;;;3.03;;
49450;SDS011;35336;48.400;10.886;2024-03-23T01:07:50;4.38;;;3.10;;
49450;SDS011;35336;48.400;10.886;2024-03-23T01:08:05;3.83;;;3.00;;
49450;SDS011;35336;48.400;10.886;2024-03-23T01:08:22;4.18;;;2.95;;
49450;SDS011;35336;48.400;10.886;2024-03-23T01:08:40;4.28;;;2.80;;
49450;SDS011;35336;48.400;10.886;2024-03-23T01:08:55;5.57;;;2.80;;
49450;SDS011;35336;48.400;10.886;2024-03-23T01:09:10;6.23;;;3.00;;
49450;SDS011;35336;48.400;10.886;2024-03-23T01:09:26;5.38;;;3.10;;
49450;SDS011;35336;48.400;10.886;2024-03-23T01:09:41;4.37;;;3.00;;
49450;SDS011;35336;48.400;10.886;2024-03-23T01:09:59;3.50;;;2.83;;
49450;SDS011;35336;48.400;10.886;2024-03-23T01:10:14;4.18;;;2.80;;
49450;SDS011;35336;48.400;10.886;2024-03-23T01:10:30;7.30;;;2.90;;
49450;SDS011;35336;48.400;10.886;2024-03-23T01:10:58;7.20;;;2.90;;
49450;SDS011;35336;48.400;10.886;2024-03-23T01:11:14;3.80;;;2.80;;
49450;SDS011;35336;48.400;10.886;2024-03-23T01:11:30;3.47;;;2.67;;
49450;SDS011;35336;48.400;10.886;2024-03-23T01:11:45;3.50;;;2.70;;
49450;SDS011;35336;48.400;10.886;2024-03-23T01:12:03;3.75;;;2.80;;
49450;SDS011;35336;48.400;10.886;2024-03-23T01:12:19;5.32;;;2.85;;
49450;SDS011;35336;48.400;10.886;2024-03-23T01:12:36;4.53;;;2.70;;
49450;SDS011;35336;48.400;10.886;2024-03-23T01:12:51;3.25;;;2.60;;
49450;SDS011;35336;48.400;10.886;2024-03-23T01:13:07;3.53;;;2.70;;
49450;SDS011;35336;48.400;10.886;2024-03-23T01:13:22;4.23;;;2.80;;
49450;SDS011;35336;48.400;10.886;2024-03-23T01:13:37;5.43;;;2.77;;
49450;SDS011;35336;48.400;10.886;2024-03-23T01:13:55;5.57;;;2.78;;
49450;SDS011;35336;48.400;10.886;2024-03-23T01:14:10;4.93;;;2.90;;
49450;SDS011;35336;48.400;10.886;2024-03-23T01:14:27;4.10;;;2.80;;
49450;SDS011;35336;48.400;10.886;2024-03-23T01:14:43;3.10;;;2.40;;
49450;SDS011;35336;48.400;10.886;2024-03-23T01:14:58;3.33;;;2.60;;
49450;SDS011;35336;48.400;10.886;2024-03-23T01:15:13;3.73;;;2.70;;
49450;SDS011;35336;48.400;10.886;2024-03-23T01:15:28;4.57;;;2.77;;
49450;SDS011;35336;48.400;10.886;2024-03-23T01:15:47;4.17;;;2.87;;
49450;SDS011;35336;48.400;10.886;2024-03-23T01:16:06;3.73;;;2.63;;
49450;SDS011;35336;48.400;10.886;2024-03-23T01:16:21;3.70;;;2.72;;
49450;SDS011;35336;48.400;10.886;2024-03-23T01:16:40;5.53;;;2.80;;
49450;SDS011;35336;48.400;10.886;2024-03-23T01:16:55;6.35;;;2.80;;
49450;SDS011;35336;48.400;10.886;2024-03-23T01:17:10;4.20;;;2.80;;
49450;SDS011;35336;48.400;10.886;2024-03-23T01:17:25;3.60;;;2.80;;
49450;SDS011;35336;48.400;10.886;2024-03-23T01:17:41;4.07;;;2.83;;
49450;SDS011;35336;48.400;10.886;2024-03-23T01:17:56;4.20;;;2.90;;
49450;SDS011;35336;48.400;10.886;2024-03-23T01:18:11;3.90;;;2.67;;
49450;SDS011;35336;48.400;10.886;2024-03-23T01:18:26;4.22;;;2.90;;
49450;SDS011;35336;48.400;10.886;2024-03-23T01:18:42;3.73;;;2.90;;
49450;SDS011;35336;48.400;10.886;2024-03-23T01:18:57;3.57;;;2.43;;
49450;SDS011;35336;48.400;10.886;2024-03-23T01:19:13;3.63;;;2.53;;
49450;SDS011;35336;48.400;10.886;2024-03-23T01:19:28;4.47;;;2.70;;
49450;SDS011;35336;48.400;10.886;2024-03-23T01:19:43;4.67;;;2.73;;
49450;SDS011;35336;48.400;10.886;2024-03-23T01:19:58;3.63;;;2.60;;
49450;SDS011;35336;48.400;10.886;2024-03-23T01:20:14;3.65;;;2.50;;
49450;SDS011;35336;48.400;10.886;2024-03-23T01:20:29;3.37;;;2.60;;
49450;SDS011;35336;48.400;10.886;2024-03-23T01:20:44;3.43;;;2.60;;
49450;SDS011;35336;48.400;10.886;2024-03-23T01:21:00;3.35;;;2.30;;
49450;SDS011;35336;48.400;10.886;2024-03-23T01:21:15;3.40;;;2.20;;
49450;SDS011;35336;48.400;10.886;2024-03-23T01:21:31;4.20;;;2.50;;
49450;SDS011;35336;48.400;10.886;2024-03-23T01:21:46;3.67;;;2.50;;
49450;SDS011;35336;48.400;10.886;2024-03-23T01:22:02;3.40;;;2.50;;
49450;SDS011;35336;48.400;10.886;2024-03-23T01:22:17;4.70;;;2.50;;
49450;SDS011;35336;48.400;10.886;2024-03-23T01:22:32;4.30;;;2.27;;
49450;SDS011;35336;48.400;10.886;2024-03-23T01:22:47;3.53;;;2.35;;
49450;SDS011;35336;48.400;10.886;2024-03-23T01:23:03;4.40;;;2.40;;
49450;SDS011;35336;48.400;10.886;2024-03-23T01:23:18;4.40;;;2.33;;
49450;SDS011;35336;48.400;10.886;2024-03-23T01:23:33;3.33;;;2.28;;
49450;SDS011;35336;48.400;10.886;2024-03-23T01:23:51;2.93;;;2.30;;
49450;SDS011;35336;48.400;10.886;2024-03-23T01:24:06;2.88;;;2.30;;
49450;SDS011;35336;48.400;10.886;2024-03-23T01:24:21;3.63;;;2.40;;
49450;SDS011;35336;48.400;10.886;2024-03-23T01:24:37;4.10;;;2.45;;
49450;SDS011;35336;48.400;10.886;2024-03-23T01:24:52;3.10;;;2.20;;
49450;SDS011;35336;48.400;10.886;2024-03-23T01:25:07;2.43;;;2.00;;
49450;SDS011;35336;48.400;10.886;2024-03-23T01:25:23;3.13;;;2.10;;
49450;SDS011;35336;48.400;10.886;2024-03-23T01:25:38;3.30;;;2.22;;
49450;SDS011;35336;48.400;10.886;2024-03-23T01:25:53;2.90;;;2.17;;
49450;SDS011;35336;48.400;10.886;2024-03-23T01:26:09;3.63;;;1.98;;
49450;SDS011;35336;48.400;10.886;2024-03-23T01:26:24;3.17;;;2.03;;
49450;SDS011;35336;48.400;10.886;2024-03-23T01:26:40;2.40;;;1.93;;
49450;SDS011;35336;48.400;10.886;2024-03-23T01:26:55;3.35;;;2.00;;
49450;SDS011;35336;48.400;10.886;2024-03-23T01:27:10;3.40;;;1.97;;
49450;SDS011;35336;48.400;10.886;2024-03-23T01:27:25;2.70;;;1.77;;
49450;SDS011;35336;48.400;10.886;2024-03-23T01:27:41;2.27;;;1.73;;
49450;SDS011;35336;48.400;10.886;2024-03-23T01:27:56;2.10;;;1.90;;
49450;SDS011;35336;48.400;10.886;2024-03-23T01:28:11;3.05;;;2.15;;
49450;SDS011;35336;48.400;10.886;2024-03-23T01:28:26;3.10;;;2.17;;
49450;SDS011;35336;48.400;10.886;2024-03-23T01:28:42;2.30;;;2.10;;
49450;SDS011;35336;48.400;10.886;2024-03-23T01:28:57;2.70;;;2.00;;
49450;SDS011;35336;48.400;10.886;2024-03-23T01:29:12;2.33;;;1.77;;
49450;SDS011;35336;48.400;10.886;2024-03-23T01:29:28;2.30;;;1.80;;
49450;SDS011;35336;48.400;10.886;2024-03-23T01:29:43;3.90;;;1.97;;
49450;SDS011;35336;48.400;10.886;2024-03-23T01:29:58;5.00;;;1.93;;
49450;SDS011;35336;48.400;10.886;2024-03-23T01:30:13;3.70;;;1.80;;
49450;SDS011;35336;48.400;10.886;2024-03-23T01:30:29;4.10;;;1.95;;
49450;SDS011;35336;48.400;10.886;2024-03-23T01:30:44;4.90;;;2.27;;
49450;SDS011;35336;48.400;10.886;2024-03-23T01:30:59;4.47;;;2.17;;
49450;SDS011;35336;48.400;10.886;2024-03-23T01:31:14;4.13;;;1.93;;
49450;SDS011;35336;48.400;10.886;2024-03-23T01:31:30;2.67;;;1.88;;
49450;SDS011;35336;48.400;10.886;2024-03-23T01:31:45;3.33;;;1.97;;
49450;SDS011;35336;48.400;10.886;2024-03-23T01:32:00;3.17;;;1.90;;
49450;SDS011;35336;48.400;10.886;2024-03-23T01:32:16;2.40;;;1.70;;
49450;SDS011;35336;48.400;10.886;2024-03-23T01:32:31;3.25;;;1.75;;
49450;SDS011;35336;48.400;10.886;2024-03-23T01:32:49;3.60;;;2.00;;
49450;SDS011;35336;48.400;10.886;2024-03-23T01:33:04;3.95;;;2.20;;
49450;SDS011;35336;48.400;10.886;2024-03-23T01:33:19;4.45;;;2.20;;
49450;SDS011;35336;48.400;10.886;2024-03-23T01:33:34;3.47;;;2.07;;
49450;SDS011;35336;48.400;10.886;2024-03-23T01:33:50;2.73;;;2.03;;
49450;SDS011;35336;48.400;10.886;2024-03-23T01:34:05;3.80;;;2.00;;
49450;SDS011;35336;48.400;10.886;2024-03-23T01:34:20;4.80;;;2.17;;
49450;SDS011;35336;48.400;10.886;2024-03-23T01:34:36;3.60;;;2.30;;
49450;SDS011;35336;48.400;10.886;2024-03-23T01:34:51;4.47;;;2.20;;
49450;SDS011;35336;48.400;10.886;2024-03-23T01:35:06;4.93;;;2.23;;
49450;SDS011;35336;48.400;10.886;2024-03-23T01:35:22;3.85;;;2.30;;
49450;SDS011;35336;48.400;10.886;2024-03-23T01:35:37;3.50;;;2.27;;
49450;SDS011;35336;48.400;10.886;2024-03-23T01:35:53;3.35;;;2.33;;
49450;SDS011;35336;48.400;10.886;2024-03-23T01:36:08;5.53;;;2.50;;
49450;SDS011;35336;48.400;10.886;2024-03-23T01:36:23;5.60;;;2.50;;
49450;SDS011;35336;48.400;10.886;2024-03-23T01:36:41;4.03;;;2.40;;
49450;SDS011;35336;48.400;10.886;2024-03-23T01:36:56;3.47;;;2.30;;
49450;SDS011;35336;48.400;10.886;2024-03-23T01:37:11;3.73;;;2.27;;
49450;SDS011;35336;48.400;10.886;2024-03-23T01:37:29;3.63;;;2.20;;
49450;SDS011;35336;48.400;10.886;2024-03-23T01:37:51;2.97;;;2.23;;
49450;SDS011;35336;48.400;10.886;2024-03-23T01:38:06;3.92;;;2.42;;
49450;SDS011;35336;48.400;10.886;2024-03-23T01:38:21;4.00;;;2.50;;
49450;SDS011;35336;48.400;10.886;2024-03-23T01:38:37;3.77;;;2.40;;
49450;SDS011;35336;48.400;10.886;2024-03-23T01:38:52;4.17;;;2.40;;
49450;SDS011;35336;48.400;10.886;2024-03-23T01:39:07;4.63;;;2.50;;
49450;SDS011;35336;48.400;10.886;2024-03-23T01:39:25;3.75;;;2.70;;
49450;SDS011;35336;48.400;10.886;2024-03-23T01:39:42;4.75;;;2.63;;
49450;SDS011;35336;48.400;10.886;2024-03-23T01:39:58;5.30;;;2.60;;
49450;SDS011;35336;48.400;10.886;2024-03-23T01:40:15;4.10;;;2.53;;
49450;SDS011;35336;48.400;10.886;2024-03-23T01:40:31;3.80;;;2.60;;
49450;SDS011;35336;48.400;10.886;2024-03-23T01:40:46;4.15;;;2.60;;
49450;SDS011;35336;48.400;10.886;2024-03-23T01:41:02;4.17;;;2.53;;
49450;SDS011;35336;48.400;10.886;2024-03-23T01:41:17;4.60;;;2.70;;
49450;SDS011;35336;48.400;10.886;2024-03-23T01:41:35;4.43;;;2.63;;
49450;SDS011;35336;48.400;10.886;2024-03-23T01:41:50;4.40;;;2.47;;
49450;SDS011;35336;48.400;10.886;2024-03-23T01:42:06;4.27;;;2.40;;
49450;SDS011;35336;48.400;10.886;2024-03-23T01:42:21;4.88;;;2.53;;
49450;SDS011;35336;48.400;10.886;2024-03-23T01:42:36;5.80;;;2.40;;
49450;SDS011;35336;48.400;10.886;2024-03-23T01:42:55;4.70;;;2.37;;
49450;SDS011;35336;48.400;10.886;2024-03-23T01:43:11;4.95;;;2.78;;
49450;SDS011;35336;48.400;10.886;2024-03-23T01:43:26;6.18;;;2.88;;
49450;SDS011;35336;48.400;10.886;2024-03-23T01:43:41;5.73;;;2.50;;
49450;SDS011;35336;48.400;10.886;2024-03-23T01:43:57;5.10;;;2.20;;
49450;SDS011;35336;48.400;10.886;2024-03-23T01:44:12;4.47;;;2.37;;
49450;SDS011;35336;48.400;10.886;2024-03-23T01:44:27;4.28;;;2.58;;
49450;SDS011;35336;48.400;10.886;2024-03-23T01:44:42;6.33;;;2.80;;
49450;SDS011;35336;48.400;10.886;2024-03-23T01:44:58;5.93;;;2.83;;
49450;SDS011;35336;48.400;10.886;2024-03-23T01:45:13;4.23;;;2.70;;
49450;SDS011;35336;48.400;10.886;2024-03-23T01:45:28;4.18;;;2.65;;
49450;SDS011;35336;48.400;10.886;2024-03-23T01:45:44;3.90;;;2.47;;
49450;SDS011;35336;48.400;10.886;2024-03-23T01:46:00;4.80;;;2.50;;
49450;SDS011;35336;48.400;10.886;2024-03-23T01:46:15;6.80;;;2.60;;
49450;SDS011;35336;48.400;10.886;2024-03-23T01:46:31;5.90;;;2.42;;
49450;SDS011;35336;48.400;10.886;2024-03-23T01:46:47;4.43;;;2.55;;
49450;SDS011;35336;48.400;10.886;2024-03-23T01:47:02;5.27;;;2.77;;
49450;SDS011;35336;48.400;10.886;2024-03-23T01:47:18;5.32;;;2.65;;
49450;SDS011;35336;48.400;10.886;2024-03-23T01:47:33;3.97;;;2.47;;
49450;SDS011;35336;48.400;10.886;2024-03-23T01:47:49;3.77;;;2.40;;
49450;SDS011;35336;48.400;10.886;2024-03-23T01:48:05;4.55;;;2.40;;
49450;SDS011;35336;48.400;10.886;2024-03-23T01:48:23;4.70;;;2.60;;
49450;SDS011;35336;48.400;10.886;2024-03-23T01:48:39;3.97;;;2.70;;
49450;SDS011;35336;48.400;10.886;2024-03-23T01:48:54;4.88;;;2.67;;
49450;SDS011;35336;48.400;10.886;2024-03-23T01:49:09;3.90;;;2.37;;
49450;SDS011;35336;48.400;10.886;2024-03-23T01:49:25;3.13;;;2.20;;
49450;SDS011;35336;48.400;10.886;2024-03-23T01:49:41;4.33;;;2.37;;
49450;SDS011;35336;48.400;10.886;2024-03-23T01:49:56;4.17;;;2.50;;
49450;SDS011;35336;48.400;10.886;2024-03-23T01:50:11;3.45;;;2.45;;
49450;SDS011;35336;48.400;10.886;2024-03-23T01:50:29;4.30;;;2.58;;
49450;SDS011;35336;48.400;10.886;2024-03-23T01:50:46;5.30;;;2.72;;
49450;SDS011;35336;48.400;10.886;2024-03-23T01:51:04;5.07;;;2.63;;
49450;SDS011;35336;48.400;10.886;2024-03-23T01:51:19;4.90;;;2.53;;
49450;SDS011;35336;48.400;10.886;2024-03-23T01:51:37;4.30;;;2.58;;
49450;SDS011;35336;48.400;10.886;2024-03-23T01:51:55;3.83;;;2.50;;
49450;SDS011;35336;48.400;10.886;2024-03-23T01:52:10;4.68;;;2.53;;
49450;SDS011;35336;48.400;10.886;2024-03-23T01:52:26;4.53;;;2.50;;
49450;SDS011;35336;48.400;10.886;2024-03-23T01:52:42;3.42;;;2.47;;
49450;SDS011;35336;48.400;10.886;2024-03-23T01:52:59;3.23;;;2.40;;
49450;SDS011;35336;48.400;10.886;2024-03-23T01:53:17;3.03;;;2.53;;
49450;SDS011;35336;48.400;10.886;2024-03-23T01:53:32;3.47;;;2.38;;
49450;SDS011;35336;48.400;10.886;2024-03-23T01:53:47;4.87;;;2.20;;
49450;SDS011;35336;48.400;10.886;2024-03-23T01:54:03;4.07;;;2.20;;
49450;SDS011;35336;48.400;10.886;2024-03-23T01:54:19;2.70;;;2.00;;
49450;SDS011;35336;48.400;10.886;2024-03-23T01:54:34;3.40;;;2.08;;
49450;SDS011;35336;48.400;10.886;2024-03-23T01:54:52;4.03;;;2.10;;
49450;SDS011;35336;48.400;10.886;2024-03-23T01:55:10;4.28;;;2.20;;
49450;SDS011;35336;48.400;10.886;2024-03-23T01:55:26;4.63;;;2.20;;
49450;SDS011;35336;48.400;10.886;2024-03-23T01:55:41;5.38;;;2.13;;
49450;SDS011;35336;48.400;10.886;2024-03-23T01:55:56;3.77;;;2.00;;
49450;SDS011;35336;48.400;10.886;2024-03-23T01:56:12;3.80;;;2.03;;
49450;SDS011;35336;48.400;10.886;2024-03-23T01:56:27;5.50;;;2.20;;
49450;SDS011;35336;48.400;10.886;2024-03-23T01:56:42;4.53;;;2.13;;
49450;SDS011;35336;48.400;10.886;2024-03-23T01:56:58;3.60;;;2.00;;
49450;SDS011;35336;48.400;10.886;2024-03-23T01:57:13;5.73;;;2.10;;
49450;SDS011;35336;48.400;10.886;2024-03-23T01:57:28;5.40;;;2.20;;
49450;SDS011;35336;48.400;10.886;2024-03-23T01:57:44;3.72;;;2.10;;
49450;SDS011;35336;48.400;10.886;2024-03-23T01:58:00;4.70;;;2.40;;
49450;SDS011;35336;48.400;10.886;2024-03-23T01:58:15;4.77;;;2.50;;
49450;SDS011;35336;48.400;10.886;2024-03-23T01:58:30;3.53;;;2.30;;
49450;SDS011;35336;48.400;10.886;2024-03-23T01:58:48;4.30;;;2.40;;
49450;SDS011;35336;48.400;10.886;2024-03-23T01:59:06;4.57;;;2.35;;
49450;SDS011;35336;48.400;10.886;2024-03-23T01:59:22;3.63;;;2.10;;
49450;SDS011;35336;48.400;10.886;2024-03-23T01:59:38;3.17;;;2.05;;
49450;SDS011;35336;48.400;10.886;2024-03-23T01:59:53;3.47;;;2.00;;
49450;SDS011;35336;48.400;10.886;2024-03-23T02:00:09;4.03;;;2.07;;
49450;SDS011;35336;48.400;10.886;2024-03-23T02:00:25;2.97;;;2.00;;
49450;SDS011;35336;48.400;10.886;2024-03-23T02:00:42;3.90;;;1.83;;
49450;SDS011;35336;48.400;10.886;2024-03-23T02:00:58;4.20;;;1.90;;
49450;SDS011;35336;48.400;10.886;2024-03-23T02:01:13;5.88;;;2.00;;
49450;SDS011;35336;48.400;10.886;2024-03-23T02:01:28;5.83;;;1.90;;
49450;SDS011;35336;48.400;10.886;2024-03-23T02:01:44;3.47;;;1.90;;
49450;SDS011;35336;48.400;10.886;2024-03-23T02:01:59;3.60;;;1.93;;
49450;SDS011;35336;48.400;10.886;2024-03-23T02:02:14;4.10;;;2.20;;
49450;SDS011;35336;48.400;10.886;2024-03-23T02:02:30;4.07;;;2.17;;
49450;SDS011;35336;48.400;10.886;2024-03-23T02:02:45;3.63;;;1.93;;
49450;SDS011;35336;48.400;10.886;2024-03-23T02:03:00;3.55;;;2.20;;
49450;SDS011;35336;48.400;10.886;2024-03-23T02:03:25;3.27;;;2.17;;
49450;SDS011;35336;48.400;10.886;2024-03-23T02:03:43;2.83;;;1.95;;
49450;SDS011;35336;48.400;10.886;2024-03-23T02:04:01;4.25;;;2.10;;
49450;SDS011;35336;48.400;10.886;2024-03-23T02:04:18;3.53;;;2.00;;
49450;SDS011;35336;48.400;10.886;2024-03-23T02:04:34;3.17;;;2.00;;
49450;SDS011;35336;48.400;10.886;2024-03-23T02:04:49;4.00;;;1.92;;
49450;SDS011;35336;48.400;10.886;2024-03-23T02:05:04;4.93;;;1.80;;
49450;SDS011;35336;48.400;10.886;2024-03-23T02:05:22;4.30;;;1.97;;
49450;SDS011;35336;48.400;10.886;2024-03-23T02:05:37;2.70;;;2.00;;
49450;SDS011;35336;48.400;10.886;2024-03-23T02:05:53;2.33;;;1.80;;
49450;SDS011;35336;48.400;10.886;2024-03-23T02:06:09;3.58;;;1.92;;
49450;SDS011;35336;48.400;10.886;2024-03-23T02:06:25;3.20;;;1.87;;
49450;SDS011;35336;48.400;10.886;2024-03-23T02:06:40;2.40;;;1.85;;
49450;SDS011;35336;48.400;10.886;2024-03-23T02:06:55;3.37;;;1.90;;
49450;SDS011;35336;48.400;10.886;2024-03-23T02:07:11;3.93;;;1.90;;
49450;SDS011;35336;48.400;10.886;2024-03-23T02:07:26;3.40;;;1.97;;
49450;SDS011;35336;48.400;10.886;2024-03-23T02:07:42;2.30;;;1.77;;
49450;SDS011;35336;48.400;10.886;2024-03-23T02:07:59;2.05;;;1.70;;
49450;SDS011;35336;48.400;10.886;2024-03-23T02:08:20;3.70;;;1.83;;
49450;SDS011;35336;48.400;10.886;2024-03-23T02:08:36;3.75;;;1.80;;
49450;SDS011;35336;48.400;10.886;2024-03-23T02:08:52;3.72;;;1.80;;
49450;SDS011;35336;48.400;10.886;2024-03-23T02:09:08;3.90;;;1.90;;
49450;SDS011;35336;48.400;10.886;2024-03-23T02:09:24;4.20;;;2.00;;
49450;SDS011;35336;48.400;10.886;2024-03-23T02:09:39;2.77;;;1.90;;
49450;SDS011;35336;48.400;10.886;2024-03-23T02:09:54;2.97;;;2.00;;
49450;SDS011;35336;48.400;10.886;2024-03-23T02:10:10;4.85;;;2.05;;
49450;SDS011;35336;48.400;10.886;2024-03-23T02:10:25;3.93;;;1.80;;
49450;SDS011;35336;48.400;10.886;2024-03-23T02:10:41;2.97;;;1.70;;
49450;SDS011;35336;48.400;10.886;2024-03-23T02:10:56;3.58;;;1.70;;
49450;SDS011;35336;48.400;10.886;2024-03-23T02:11:11;3.50;;;1.67;;
49450;SDS011;35336;48.400;10.886;2024-03-23T02:11:26;2.67;;;1.77;;
49450;SDS011;35336;48.400;10.886;2024-03-23T02:11:42;2.10;;;1.80;;
49450;SDS011;35336;48.400;10.886;2024-03-23T02:11:57;3.20;;;2.00;;
49450;SDS011;35336;48.400;10.886;2024-03-23T02:12:13;2.80;;;1.98;;
49450;SDS011;35336;48.400;10.886;2024-03-23T02:12:31;3.17;;;1.98;;
49450;SDS011;35336;48.400;10.886;2024-03-23T02:12:48;4.20;;;1.97;;
49450;SDS011;35336;48.400;10.886;2024-03-23T02:13:03;2.88;;;1.67;;
49450;SDS011;35336;48.400;10.886;2024-03-23T02:13:19;1.60;;;1.50;;
49450;SDS011;35336;48.400;10.886;2024-03-23T02:13:34;1.93;;;1.70;;
49450;SDS011;35336;48.400;10.886;2024-03-23T02:13:49;2.65;;;1.88;;
49450;SDS011;35336;48.400;10.886;2024-03-23T02:14:05;2.47;;;1.87;;
49450;SDS011;35336;48.400;10.886;2024-03-23T02:14:20;3.00;;;1.80;;
49450;SDS011;35336;48.400;10.886;2024-03-23T02:14:35;4.47;;;1.80;;
49450;SDS011;35336;48.400;10.886;2024-03-23T02:14:50;4.97;;;1.90;;
49450;SDS011;35336;48.400;10.886;2024-03-23T02:15:06;3.78;;;1.80;;
49450;SDS011;35336;48.400;10.886;2024-03-23T02:15:21;2.87;;;1.70;;
49450;SDS011;35336;48.400;10.886;2024-03-23T02:15:38;3.50;;;1.83;;
49450;SDS011;35336;48.400;10.886;2024-03-23T02:15:54;3.05;;;1.80;;
49450;SDS011;35336;48.400;10.886;2024-03-23T02:16:09;2.50;;;1.83;;
49450;SDS011;35336;48.400;10.886;2024-03-23T02:16:24;2.37;;;1.90;;
49450;SDS011;35336;48.400;10.886;2024-03-23T02:16:40;2.30;;;1.90;;
49450;SDS011;35336;48.400;10.886;2024-03-23T02:16:55;2.58;;;1.98;;
49450;SDS011;35336;48.400;10.886;2024-03-23T02:17:10;3.33;;;2.10;;
49450;SDS011;35336;48.400;10.886;2024-03-23T02:17:25;3.20;;;1.80;;
49450;SDS011;35336;48.400;10.886;2024-03-23T02:17:43;2.60;;;1.80;;
49450;SDS011;35336;48.400;10.886;2024-03-23T02:17:58;2.92;;;2.05;;
49450;SDS011;35336;48.400;10.886;2024-03-23T02:18:13;3.90;;;2.20;;
49450;SDS011;35336;48.400;10.886;2024-03-23T02:18:31;4.33;;;2.10;;
49450;SDS011;35336;48.400;10.886;2024-03-23T02:18:49;2.97;;;1.92;;
49450;SDS011;35336;48.400;10.886;2024-03-23T02:19:05;3.80;;;1.97;;
49450;SDS011;35336;48.400;10.886;2024-03-23T02:19:20;3.90;;;1.97;;
49450;SDS011;35336;48.400;10.886;2024-03-23T02:19:35;2.85;;;1.70;;
49450;SDS011;35336;48.400;10.886;2024-03-23T02:19:51;3.80;;;1.80;;
49450;SDS011;35336;48.400;10.886;2024-03-23T02:20:06;4.70;;;1.90;;
49450;SDS011;35336;48.400;10.886;2024-03-23T02:20:22;3.45;;;1.83;;
49450;SDS011;35336;48.400;10.886;2024-03-23T02:20:37;2.57;;;1.70;;
49450;SDS011;35336;48.400;10.886;2024-03-23T02:20:53;3.35;;;1.80;;
49450;SDS011;35336;48.400;10.886;2024-03-23T02:21:08;3.47;;;1.80;;
49450;SDS011;35336;48.400;10.886;2024-03-23T02:21:23;3.37;;;1.87;;
49450;SDS011;35336;48.400;10.886;2024-03-23T02:21:39;3.45;;;1.83;;
49450;SDS011;35336;48.400;10.886;2024-03-23T02:21:54;3.10;;;1.73;;
49450;SDS011;35336;48.400;10.886;2024-03-23T02:22:12;2.70;;;1.80;;
49450;SDS011;35336;48.400;10.886;2024-03-23T02:22:36;2.63;;;1.80;;
49450;SDS011;35336;48.400;10.886;2024-03-23T02:22:55;2.60;;;1.95;;
49450;SDS011;35336;48.400;10.886;2024-03-23T02:23:13;2.00;;;1.80;;
49450;SDS011;35336;48.400;10.886;2024-03-23T02:23:32;3.20;;;1.80;;
49450;SDS011;35336;48.400;10.886;2024-03-23T02:23:47;3.97;;;1.67;;
49450;SDS011;35336;48.400;10.886;2024-03-23T02:24:03;3.33;;;1.80;;
49450;SDS011;35336;48.400;10.886;2024-03-23T02:24:18;2.40;;;1.80;;
49450;SDS011;35336;48.400;10.886;2024-03-23T02:24:33;2.83;;;1.83;;
49450;SDS011;35336;48.400;10.886;2024-03-23T02:24:49;2.97;;;1.97;;
49450;SDS011;35336;48.400;10.886;2024-03-23T02:25:05;2.50;;;1.80;;
49450;SDS011;35336;48.400;10.886;2024-03-23T02:25:20;2.38;;;1.85;;
49450;SDS011;35336;48.400;10.886;2024-03-23T02:25:36;2.95;;;1.80;;
49450;SDS011;35336;48.400;10.886;2024-03-23T02:25:51;2.70;;;1.70;;
49450;SDS011;35336;48.400;10.886;2024-03-23T02:26:06;2.07;;;1.80;;
49450;SDS011;35336;48.400;10.886;2024-03-23T02:26:22;2.42;;;1.80;;
49450;SDS011;35336;48.400;10.886;2024-03-23T02:26:39;3.07;;;1.90;;
49450;SDS011;35336;48.400;10.886;2024-03-23T02:26:54;4.30;;;1.92;;